createdAt,value
2023-05-23T00:01:10.199Z,99.90
2023-05-23T00:03:37.730Z,99.90
2023-05-23T00:06:06.674Z,99.90
2023-05-23T00:08:33.729Z,99.90
2023-05-23T00:11:00.778Z,99.90
2023-05-23T00:13:27.949Z,99.90
2023-05-23T00:15:54.931Z,99.90
2023-05-23T00:18:24.854Z,99.90
2023-05-23T00:20:52.080Z,99.90
2023-05-23T00:23:20.940Z,99.90
2023-05-23T00:25:53.018Z,99.90
2023-05-23T00:28:20.887Z,99.90
2023-05-23T00:30:51.386Z,99.90
2023-05-23T00:33:22.475Z,99.90
2023-05-23T00:35:49.791Z,99.90
2023-05-23T00:38:17.213Z,99.90
2023-05-23T00:40:44.320Z,99.90
2023-05-23T00:43:11.306Z,99.90
2023-05-23T00:45:39.962Z,99.90
2023-05-23T00:48:08.107Z,99.90
2023-05-23T00:50:36.298Z,99.90
2023-05-23T00:53:03.989Z,99.90
2023-05-23T00:55:31.309Z,99.90
2023-05-23T00:57:58.793Z,99.90
2023-05-23T01:00:26.558Z,99.90
2023-05-23T01:02:53.986Z,99.90
2023-05-23T01:05:22.909Z,99.90
2023-05-23T01:07:51.175Z,99.90
2023-05-23T01:10:28.443Z,99.90
2023-05-23T01:13:05.524Z,99.90
2023-05-23T01:15:36.279Z,99.90
2023-05-23T01:18:08.484Z,99.90
2023-05-23T01:20:40.213Z,99.90
2023-05-23T01:23:14.367Z,99.90
2023-05-23T01:25:41.649Z,99.90
2023-05-23T01:28:12.003Z,99.90
2023-05-23T01:30:39.962Z,99.90
2023-05-23T01:33:08.190Z,99.90
2023-05-23T01:35:36.389Z,99.90
2023-05-23T01:38:03.468Z,99.90
2023-05-23T01:40:33.981Z,99.90
2023-05-23T01:43:01.358Z,99.90
2023-05-23T01:45:29.069Z,99.90
2023-05-23T01:47:57.209Z,99.90
2023-05-23T01:50:26.049Z,99.90
2023-05-23T01:52:53.623Z,99.90
2023-05-23T01:55:26.622Z,99.90
2023-05-23T01:57:55.610Z,99.90
2023-05-23T02:00:22.948Z,99.90
2023-05-23T02:02:50.399Z,99.90
2023-05-23T02:05:18.087Z,99.90
2023-05-23T02:07:45.831Z,99.90
2023-05-23T02:10:12.923Z,99.90
2023-05-23T02:12:40.143Z,99.90
2023-05-23T02:15:07.926Z,99.90
2023-05-23T02:17:35.115Z,99.90
2023-05-23T02:20:02.227Z,99.90
2023-05-23T02:22:29.318Z,99.90
2023-05-23T02:24:56.508Z,99.90
2023-05-23T02:27:23.597Z,99.90
2023-05-23T02:29:50.668Z,99.90
2023-05-23T02:32:17.687Z,99.90
2023-05-23T02:34:46.937Z,99.90
2023-05-23T02:37:14.944Z,99.90
2023-05-23T02:39:42.962Z,99.90
2023-05-23T02:42:10.267Z,99.90
2023-05-23T02:44:37.601Z,99.90
2023-05-23T02:47:05.103Z,99.90
2023-05-23T02:49:33.864Z,99.90
2023-05-23T02:52:01.430Z,99.90
2023-05-23T02:54:28.732Z,99.90
2023-05-23T02:56:56.951Z,99.90
2023-05-23T02:59:24.460Z,99.90
2023-05-23T03:01:51.567Z,99.90
2023-05-23T03:04:18.819Z,99.90
2023-05-23T03:06:45.976Z,99.90
2023-05-23T03:09:13.050Z,99.90
2023-05-23T03:11:40.724Z,99.90
2023-05-23T03:14:07.797Z,99.90
2023-05-23T03:16:34.842Z,99.90
2023-05-23T03:19:01.941Z,99.90
2023-05-23T03:21:31.481Z,99.90
2023-05-23T03:23:58.626Z,99.90
2023-05-23T03:26:25.826Z,99.90
2023-05-23T03:28:52.990Z,99.90
2023-05-23T03:31:20.137Z,99.90
2023-05-23T03:33:47.165Z,99.90
2023-05-23T03:36:14.280Z,99.90
2023-05-23T03:38:42.070Z,99.90
2023-05-23T03:41:09.160Z,99.90
2023-05-23T03:43:36.257Z,99.90
2023-05-23T03:46:03.772Z,99.90
2023-05-23T03:48:31.182Z,99.90
2023-05-23T03:50:58.280Z,99.90
2023-05-23T03:53:25.734Z,99.90
2023-05-23T03:55:54.162Z,99.90
2023-05-23T03:58:21.743Z,99.90
2023-05-23T04:00:53.232Z,99.90
2023-05-23T04:03:21.582Z,99.90
2023-05-23T04:05:50.386Z,99.90
2023-05-23T04:08:17.940Z,99.90
2023-05-23T04:10:44.958Z,99.90
2023-05-23T04:13:12.095Z,99.90
2023-05-23T04:15:40.059Z,99.90
2023-05-23T04:18:10.420Z,99.90
2023-05-23T04:20:38.289Z,99.90
2023-05-23T04:23:05.756Z,99.90
2023-05-23T04:25:36.094Z,99.90
2023-05-23T04:28:23.876Z,99.90
2023-05-23T04:30:51.148Z,99.90
2023-05-23T04:33:22.260Z,99.90
2023-05-23T04:35:49.605Z,99.90
2023-05-23T04:38:17.345Z,99.90
2023-05-23T04:40:44.997Z,99.90
2023-05-23T04:43:33.785Z,99.90
2023-05-23T04:46:14.165Z,99.90
2023-05-23T04:48:44.899Z,99.90
2023-05-23T04:51:12.274Z,99.90
2023-05-23T04:53:54.510Z,99.90
2023-05-23T04:56:22.467Z,99.90
2023-05-23T04:58:49.991Z,99.90
2023-05-23T05:01:17.704Z,99.90
2023-05-23T05:03:44.890Z,99.90
2023-05-23T05:06:13.775Z,99.90
2023-05-23T05:08:42.303Z,99.90
2023-05-23T05:11:10.555Z,99.90
2023-05-23T05:13:37.823Z,99.90
2023-05-23T05:16:05.593Z,99.90
2023-05-23T05:18:32.707Z,99.90
2023-05-23T05:20:59.870Z,99.90
2023-05-23T05:23:30.619Z,99.90
2023-05-23T05:26:00.903Z,99.90
2023-05-23T05:28:28.390Z,99.90
2023-05-23T05:30:55.649Z,99.90
2023-05-23T05:33:24.048Z,99.90
2023-05-23T05:35:58.700Z,99.90
2023-05-23T05:38:26.958Z,99.90
2023-05-23T05:40:54.400Z,99.90
2023-05-23T05:43:26.332Z,99.90
2023-05-23T05:45:53.558Z,99.90
2023-05-23T05:48:21.182Z,99.90
2023-05-23T05:50:48.730Z,99.90
2023-05-23T05:53:16.445Z,99.90
2023-05-23T05:55:43.693Z,99.90
2023-05-23T05:58:10.688Z,99.90
2023-05-23T06:01:00.852Z,99.90
2023-05-23T06:03:28.400Z,99.90
2023-05-23T06:05:56.171Z,99.90
2023-05-23T06:08:23.648Z,99.90
2023-05-23T06:10:50.912Z,99.90
2023-05-23T06:13:18.390Z,99.90
2023-05-23T06:15:49.545Z,99.90
2023-05-23T06:18:17.528Z,99.90
2023-05-23T06:20:45.281Z,99.90
2023-05-23T06:23:15.968Z,99.90
2023-05-23T06:25:43.167Z,99.90
2023-05-23T06:28:10.382Z,99.90
2023-05-23T06:30:38.781Z,99.90
2023-05-23T06:33:08.027Z,99.90
2023-05-23T06:35:35.629Z,99.90
2023-05-23T06:38:03.312Z,99.90
2023-05-23T06:40:30.462Z,99.90
2023-05-23T06:42:57.618Z,99.90
2023-05-23T06:45:35.263Z,99.90
2023-05-23T06:48:03.237Z,99.90
2023-05-23T06:50:31.998Z,99.90
2023-05-23T06:52:59.077Z,99.90
2023-05-23T06:55:27.148Z,99.90
2023-05-23T06:57:57.303Z,99.90
2023-05-23T07:00:24.987Z,99.90
2023-05-23T07:03:15.196Z,99.90
2023-05-23T07:05:42.370Z,99.90
2023-05-23T07:08:13.767Z,99.90
2023-05-23T07:10:50.269Z,99.90
2023-05-23T07:13:37.747Z,99.90
2023-05-23T07:16:05.268Z,99.90
2023-05-23T07:18:36.882Z,99.90
2023-05-23T07:21:05.886Z,99.90
2023-05-23T07:23:34.541Z,99.90
2023-05-23T07:26:03.325Z,99.90
2023-05-23T07:28:51.433Z,99.90
2023-05-23T07:31:18.873Z,99.90
2023-05-23T07:33:46.778Z,99.90
2023-05-23T07:36:20.560Z,99.90
2023-05-23T07:38:47.781Z,99.90
2023-05-23T07:41:14.951Z,99.90
2023-05-23T07:43:42.032Z,99.90
2023-05-23T07:46:09.513Z,99.90
2023-05-23T07:48:38.185Z,99.90
2023-05-23T07:51:05.379Z,99.90
2023-05-23T07:53:32.426Z,99.90
2023-05-23T07:55:59.510Z,99.90
2023-05-23T07:58:31.659Z,99.90
2023-05-23T08:00:59.773Z,99.90
2023-05-23T08:03:45.671Z,99.90
2023-05-23T08:06:20.000Z,99.90
2023-05-23T08:08:47.326Z,99.90
2023-05-23T08:11:15.660Z,99.90
2023-05-23T08:13:47.050Z,99.90
2023-05-23T08:16:42.856Z,99.90
2023-05-23T08:19:17.865Z,99.90
2023-05-23T08:21:46.993Z,99.90
2023-05-23T08:24:15.158Z,99.90
2023-05-23T08:26:44.260Z,99.90
2023-05-23T08:29:14.130Z,99.90
2023-05-23T08:31:42.666Z,99.90
2023-05-23T08:34:11.168Z,99.90
2023-05-23T08:36:40.083Z,99.90
2023-05-23T08:39:11.820Z,99.90
2023-05-23T08:41:48.682Z,99.90
2023-05-23T08:44:16.009Z,99.90
2023-05-23T08:46:50.096Z,99.90
2023-05-23T08:49:36.843Z,99.90
2023-05-23T08:52:04.241Z,99.90
2023-05-23T08:54:34.132Z,99.90
2023-05-23T08:57:02.385Z,99.90
2023-05-23T08:59:33.903Z,99.90
2023-05-23T09:02:02.749Z,99.90
2023-05-23T09:04:32.498Z,99.90
2023-05-23T09:07:04.545Z,99.90
2023-05-23T09:09:34.201Z,99.90
2023-05-23T09:12:03.886Z,99.90
2023-05-23T09:14:32.727Z,99.90
2023-05-23T09:17:05.289Z,99.90
2023-05-23T09:19:33.726Z,99.90
2023-05-23T09:22:16.405Z,99.90
2023-05-23T09:24:57.698Z,99.90
2023-05-23T09:27:25.089Z,99.90
2023-05-23T09:29:52.582Z,99.90
2023-05-23T09:32:21.192Z,99.90
2023-05-23T09:35:03.897Z,99.90
2023-05-23T09:37:41.348Z,99.90
2023-05-23T09:40:12.523Z,99.90
2023-05-23T09:42:48.133Z,99.90
2023-05-23T09:45:16.388Z,99.90
2023-05-23T09:47:54.062Z,99.90
2023-05-23T09:50:21.804Z,99.90
2023-05-23T09:52:49.319Z,99.90
2023-05-23T09:55:16.848Z,99.90
2023-05-23T09:57:44.512Z,99.90
2023-05-23T10:00:15.019Z,99.90
2023-05-23T10:02:54.894Z,99.90
2023-05-23T10:05:42.526Z,99.90
2023-05-23T10:08:30.184Z,99.90
2023-05-23T10:10:57.575Z,99.90
2023-05-23T10:13:28.363Z,99.90
2023-05-23T10:15:58.637Z,99.90
2023-05-23T10:18:34.983Z,99.90
2023-05-23T10:21:05.766Z,99.90
2023-05-23T10:23:33.129Z,99.90
2023-05-23T10:26:00.300Z,99.90
2023-05-23T10:28:28.208Z,99.90
2023-05-23T10:30:55.616Z,99.90
2023-05-23T10:33:23.215Z,99.90
2023-05-23T10:36:09.782Z,99.90
2023-05-23T10:38:39.813Z,99.90
2023-05-23T10:41:07.134Z,99.90
2023-05-23T10:43:37.294Z,99.90
2023-05-23T10:46:04.501Z,99.90
2023-05-23T10:48:33.938Z,99.90
2023-05-23T10:51:08.054Z,99.90
2023-05-23T10:53:39.178Z,99.90
2023-05-23T10:56:09.813Z,99.90
2023-05-23T10:58:37.751Z,99.90
2023-05-23T11:01:08.748Z,99.90
2023-05-23T11:03:37.403Z,99.90
2023-05-23T11:06:05.397Z,99.90
2023-05-23T11:08:47.705Z,99.90
2023-05-23T11:11:15.963Z,99.90
2023-05-23T11:13:53.358Z,99.90
2023-05-23T11:16:26.502Z,99.90
2023-05-23T11:18:58.418Z,99.90
2023-05-23T11:21:26.068Z,99.90
2023-05-23T11:23:54.670Z,99.90
2023-05-23T11:26:31.829Z,99.90
2023-05-23T11:28:59.463Z,99.90
2023-05-23T11:31:27.222Z,99.90
2023-05-23T11:33:54.444Z,99.90
2023-05-23T11:36:22.003Z,99.90
2023-05-23T11:38:52.870Z,99.90
2023-05-23T11:41:19.869Z,99.90
2023-05-23T11:43:50.514Z,99.90
2023-05-23T11:46:18.135Z,99.90
2023-05-23T11:48:45.937Z,99.90
2023-05-23T11:51:13.112Z,99.90
2023-05-23T11:53:40.468Z,99.90
2023-05-23T11:56:08.293Z,99.90
2023-05-23T11:58:36.539Z,99.90
2023-05-23T12:01:10.226Z,99.90
2023-05-23T12:03:47.101Z,99.90
2023-05-23T12:06:21.281Z,99.90
2023-05-23T12:08:48.731Z,99.90
2023-05-23T12:11:15.997Z,99.90
2023-05-23T12:13:43.374Z,99.90
2023-05-23T12:16:13.312Z,99.90
2023-05-23T12:18:40.682Z,99.90
2023-05-23T12:21:08.659Z,99.90
2023-05-23T12:23:36.684Z,99.90
2023-05-23T12:26:07.773Z,99.90
2023-05-23T12:28:47.896Z,99.90
2023-05-23T12:31:19.262Z,99.90
2023-05-23T12:33:48.357Z,99.90
2023-05-23T12:36:21.982Z,99.90
2023-05-23T12:38:49.368Z,99.90
2023-05-23T12:41:17.646Z,99.90
2023-05-23T12:43:54.919Z,99.90
2023-05-23T12:46:23.822Z,99.90
2023-05-23T12:48:51.001Z,99.90
2023-05-23T12:51:18.160Z,99.90
2023-05-23T12:53:45.595Z,99.90
2023-05-23T12:56:12.968Z,99.90
2023-05-23T12:58:40.074Z,99.90
2023-05-23T13:01:07.257Z,99.90
2023-05-23T13:03:34.358Z,99.90
2023-05-23T13:06:01.848Z,99.90
2023-05-23T13:08:29.742Z,99.90
2023-05-23T13:10:57.302Z,99.90
2023-05-23T13:13:24.418Z,99.90
2023-05-23T13:15:51.853Z,99.90
2023-05-23T13:18:19.204Z,99.90
2023-05-23T13:20:46.722Z,99.90
2023-05-23T13:23:14.037Z,99.90
2023-05-23T13:25:41.252Z,99.90
2023-05-23T13:28:08.556Z,98.60
2023-05-23T13:30:35.684Z,97.90
2023-05-23T13:33:03.749Z,97.80
2023-05-23T13:35:31.021Z,95.80
2023-05-23T13:37:58.098Z,95.20
2023-05-23T13:40:25.152Z,95.60
2023-05-23T13:42:52.232Z,97.20
2023-05-23T13:45:19.911Z,99.20
2023-05-23T13:47:47.536Z,99.90
2023-05-23T13:50:14.733Z,99.90
2023-05-23T13:52:44.940Z,99.90
2023-05-23T13:55:13.628Z,99.90
2023-05-23T13:57:40.646Z,99.90
2023-05-23T14:00:09.708Z,99.90
2023-05-23T14:02:36.908Z,99.90
2023-05-23T14:05:05.090Z,99.90
2023-05-23T14:07:32.147Z,99.90
2023-05-23T14:09:59.994Z,99.90
2023-05-23T14:12:27.134Z,99.90
2023-05-23T14:14:54.260Z,99.90
2023-05-23T14:17:21.583Z,99.90
2023-05-23T14:19:48.821Z,99.90
2023-05-23T14:22:15.987Z,99.90
2023-05-23T14:24:43.147Z,99.90
2023-05-23T14:27:11.464Z,99.90
2023-05-23T14:29:39.099Z,99.90
2023-05-23T14:32:06.665Z,97.50
2023-05-23T14:34:33.998Z,94.60
2023-05-23T14:37:01.137Z,92.80
2023-05-23T14:39:29.335Z,93.10
2023-05-23T14:41:56.588Z,92.60
2023-05-23T14:44:23.961Z,91.90
2023-05-23T14:46:51.259Z,92.20
2023-05-23T14:49:18.305Z,93.60
2023-05-23T14:51:50.234Z,96.60
2023-05-23T14:54:18.567Z,99.20
2023-05-23T14:56:45.741Z,99.90
2023-05-23T14:59:12.905Z,99.90
2023-05-23T15:01:40.935Z,99.90
2023-05-23T15:04:09.850Z,99.90
2023-05-23T15:06:38.741Z,99.90
2023-05-23T15:09:06.155Z,99.90
2023-05-23T15:11:35.222Z,99.90
2023-05-23T15:14:09.833Z,99.90
2023-05-23T15:16:37.583Z,99.90
2023-05-23T15:19:05.731Z,99.90
2023-05-23T15:21:32.899Z,99.90
2023-05-23T15:23:59.949Z,99.90
2023-05-23T15:26:27.519Z,99.90
2023-05-23T15:28:54.756Z,99.90
2023-05-23T15:31:21.987Z,99.90
2023-05-23T15:33:49.218Z,99.90
2023-05-23T15:36:16.294Z,99.90
2023-05-23T15:38:43.981Z,99.90
2023-05-23T15:41:11.455Z,99.90
2023-05-23T15:43:38.582Z,99.90
2023-05-23T15:46:05.841Z,99.90
2023-05-23T15:48:32.981Z,99.90
2023-05-23T15:50:59.988Z,99.90
2023-05-23T15:53:27.111Z,99.90
2023-05-23T15:55:54.406Z,99.90
2023-05-23T15:58:21.498Z,99.90
2023-05-23T16:00:48.567Z,99.90
2023-05-23T16:03:15.748Z,99.90
2023-05-23T16:05:43.152Z,99.90
2023-05-23T16:08:10.418Z,99.90
2023-05-23T16:10:37.450Z,99.90
2023-05-23T16:13:04.713Z,99.90
2023-05-23T16:15:31.931Z,99.90
2023-05-23T16:17:59.131Z,99.90
2023-05-23T16:20:26.335Z,99.90
2023-05-23T16:22:53.416Z,99.90
2023-05-23T16:25:20.821Z,99.90
2023-05-23T16:27:47.923Z,99.90
2023-05-23T16:30:15.070Z,99.90
2023-05-23T16:32:42.208Z,99.90
2023-05-23T16:35:11.132Z,99.90
2023-05-23T16:37:38.709Z,99.90
2023-05-23T16:40:06.140Z,99.90
2023-05-23T16:42:33.242Z,99.90
2023-05-23T16:45:00.519Z,99.90
2023-05-23T16:47:27.566Z,99.90
2023-05-23T16:49:54.615Z,99.90
2023-05-23T16:52:21.985Z,99.90
2023-05-23T16:54:49.112Z,99.90
2023-05-23T16:57:16.190Z,99.90
2023-05-23T16:59:43.289Z,99.90
2023-05-23T17:02:14.023Z,99.90
2023-05-23T17:04:41.665Z,99.90
2023-05-23T17:07:09.683Z,99.90
2023-05-23T17:09:37.048Z,99.90
2023-05-23T17:12:04.278Z,99.90
2023-05-23T17:14:32.079Z,99.90
2023-05-23T17:16:59.164Z,99.90
2023-05-23T17:19:26.330Z,99.90
2023-05-23T17:21:53.376Z,99.90
2023-05-23T17:24:20.476Z,99.90
2023-05-23T17:26:47.824Z,99.90
2023-05-23T17:29:17.344Z,99.90
2023-05-23T17:31:44.572Z,99.90
2023-05-23T17:34:12.801Z,99.90
2023-05-23T17:36:39.936Z,99.90
2023-05-23T17:39:07.139Z,99.90
2023-05-23T17:41:35.442Z,99.90
2023-05-23T17:44:02.850Z,99.90
2023-05-23T17:46:29.887Z,99.90
2023-05-23T17:48:57.089Z,99.90
2023-05-23T17:51:24.244Z,99.90
2023-05-23T17:53:53.794Z,99.90
2023-05-23T17:56:23.502Z,99.90
2023-05-23T17:58:50.828Z,99.90
2023-05-23T18:01:18.063Z,99.90
2023-05-23T18:03:45.423Z,99.90
2023-05-23T18:06:12.781Z,99.90
2023-05-23T18:08:41.064Z,99.90
2023-05-23T18:11:08.100Z,99.90
2023-05-23T18:13:35.144Z,99.90
2023-05-23T18:16:02.296Z,99.90
2023-05-23T18:18:29.417Z,99.90
2023-05-23T18:20:56.797Z,99.90
2023-05-23T18:23:23.901Z,99.90
2023-05-23T18:25:50.985Z,99.90
2023-05-23T18:28:18.140Z,99.90
2023-05-23T18:30:45.439Z,99.90
2023-05-23T18:33:12.750Z,99.90
2023-05-23T18:35:40.157Z,99.90
2023-05-23T18:38:07.488Z,99.90
2023-05-23T18:40:34.544Z,99.90
2023-05-23T18:43:01.577Z,99.90
2023-05-23T18:45:29.252Z,99.90
2023-05-23T18:47:56.561Z,99.90
2023-05-23T18:50:23.817Z,99.90
2023-05-23T18:52:50.882Z,99.90
2023-05-23T18:55:17.978Z,99.90
2023-05-23T18:57:44.975Z,99.90
2023-05-23T19:00:12.564Z,99.90
2023-05-23T19:02:44.289Z,99.90
2023-05-23T19:05:12.675Z,99.90
2023-05-23T19:07:40.046Z,99.90
2023-05-23T19:10:07.310Z,99.90
2023-05-23T19:12:34.442Z,99.90
2023-05-23T19:15:02.070Z,99.90
2023-05-23T19:17:29.192Z,99.90
2023-05-23T19:19:56.436Z,99.90
2023-05-23T19:22:23.897Z,99.90
2023-05-23T19:24:51.027Z,99.90
2023-05-23T19:27:18.021Z,99.90
2023-05-23T19:29:45.569Z,99.90
2023-05-23T19:32:12.765Z,99.90
2023-05-23T19:34:40.090Z,99.90
2023-05-23T19:37:07.295Z,99.90
2023-05-23T19:39:34.627Z,99.90
2023-05-23T19:42:01.643Z,99.90
2023-05-23T19:44:28.913Z,99.90
2023-05-23T19:46:56.079Z,99.90
2023-05-23T19:49:23.194Z,99.90
2023-05-23T19:51:50.347Z,99.90
2023-05-23T19:54:17.864Z,99.90
2023-05-23T19:56:45.722Z,99.90
2023-05-23T19:59:13.707Z,99.90
2023-05-23T20:01:40.821Z,99.90
2023-05-23T20:04:10.247Z,99.90
2023-05-23T20:06:37.592Z,99.90
2023-05-23T20:09:04.804Z,99.90
2023-05-23T20:11:32.011Z,99.90
2023-05-23T20:13:58.998Z,99.90
2023-05-23T20:16:26.578Z,99.90
2023-05-23T20:18:53.822Z,99.90
2023-05-23T20:21:21.164Z,99.90
2023-05-23T20:23:49.285Z,99.90
2023-05-23T20:26:16.549Z,99.90
2023-05-23T20:28:43.539Z,99.90
2023-05-23T20:31:10.768Z,99.90
2023-05-23T20:33:37.894Z,99.90
2023-05-23T20:36:05.192Z,99.90
2023-05-23T20:38:34.211Z,99.90
2023-05-23T20:41:07.730Z,99.90
2023-05-23T20:43:37.548Z,99.90
2023-05-23T20:46:10.024Z,99.90
2023-05-23T20:48:37.592Z,99.90
2023-05-23T20:51:05.937Z,99.90
2023-05-23T20:53:33.476Z,99.90
2023-05-23T20:56:00.838Z,99.90
2023-05-23T20:58:27.979Z,99.90
2023-05-23T21:00:55.063Z,99.90
2023-05-23T21:03:22.215Z,99.90
2023-05-23T21:05:49.986Z,99.90
2023-05-23T21:08:17.313Z,99.90
2023-05-23T21:10:48.063Z,99.90
2023-05-23T21:13:17.074Z,99.90
2023-05-23T21:15:44.305Z,99.90
2023-05-23T21:18:11.481Z,99.90
2023-05-23T21:20:38.747Z,99.90
2023-05-23T21:23:05.772Z,99.90
2023-05-23T21:25:32.836Z,99.90
2023-05-23T21:27:59.927Z,99.90
2023-05-23T21:30:27.242Z,99.90
2023-05-23T21:32:54.448Z,99.90
2023-05-23T21:35:21.557Z,99.90
2023-05-23T21:37:48.638Z,99.90
2023-05-23T21:40:15.730Z,99.90
2023-05-23T21:42:42.785Z,99.90
2023-05-23T21:45:10.265Z,99.90
2023-05-23T21:47:37.437Z,99.90
2023-05-23T21:50:04.980Z,99.90
2023-05-23T21:52:32.058Z,99.90
2023-05-23T21:54:59.112Z,99.90
2023-05-23T21:57:26.231Z,99.90
2023-05-23T21:59:53.370Z,99.90
2023-05-23T22:02:20.638Z,99.90
2023-05-23T22:04:47.907Z,99.90
2023-05-23T22:07:14.953Z,99.90
2023-05-23T22:09:41.943Z,99.90
2023-05-23T22:12:09.057Z,99.90
2023-05-23T22:14:36.227Z,99.90
2023-05-23T22:17:03.928Z,99.90
2023-05-23T22:19:31.175Z,99.90
2023-05-23T22:21:58.250Z,99.90
2023-05-23T22:24:25.567Z,99.90
2023-05-23T22:26:52.673Z,99.90
2023-05-23T22:29:19.864Z,99.90
2023-05-23T22:31:47.695Z,99.90
2023-05-23T22:34:15.369Z,99.90
2023-05-23T22:36:42.409Z,99.90
2023-05-23T22:39:09.757Z,99.90
2023-05-23T22:41:36.889Z,99.90
2023-05-23T22:44:04.079Z,99.90
2023-05-23T22:46:32.029Z,99.90
2023-05-23T22:49:00.467Z,99.90
2023-05-23T22:51:27.545Z,99.90
2023-05-23T22:53:54.710Z,99.90
2023-05-23T22:56:22.063Z,99.90
2023-05-23T22:58:49.179Z,99.90
2023-05-23T23:01:16.369Z,99.90
2023-05-23T23:03:43.588Z,99.90
2023-05-23T23:06:10.786Z,99.90
2023-05-23T23:08:38.046Z,99.90
2023-05-23T23:11:05.314Z,99.90
2023-05-23T23:13:32.682Z,99.90
2023-05-23T23:15:59.899Z,99.90
2023-05-23T23:18:29.916Z,99.90
2023-05-23T23:20:57.071Z,99.90
2023-05-23T23:23:24.137Z,99.90
2023-05-23T23:25:52.420Z,99.90
2023-05-23T23:28:19.920Z,99.90
2023-05-23T23:30:47.146Z,99.90
2023-05-23T23:33:15.110Z,99.90
2023-05-23T23:35:45.617Z,99.90
2023-05-23T23:38:12.802Z,99.90
2023-05-23T23:40:40.056Z,99.90
2023-05-23T23:43:07.226Z,99.90
2023-05-23T23:45:34.382Z,99.90
2023-05-23T23:48:01.491Z,99.90
2023-05-23T23:50:28.551Z,99.90
2023-05-23T23:52:58.063Z,99.90
2023-05-23T23:55:25.104Z,99.90
2023-05-23T23:57:52.226Z,99.90
